This is the latest recevied weather packets stored in our database for station/object KF7OVD-WX. If no packets are shown the sender has not sent any weather packets the latest 10 day(s).
| Time | Temp. | Humidity | Pressure | Rain* | Wind** | Luminosity | Snow |
|---|---|---|---|---|---|---|---|
| 1777857630 | 19.44° C | 33% | 1015.3 hPa | 0 mm | - | - | - |
| 1777857327 | 19.44° C | 32% | 1015.3 hPa | 0 mm | - | - | - |
| 1777857025 | 19.44° C | 32% | 1015.3 hPa | 0 mm | - | - | - |
| 1777856722 | 20° C | 32% | 1015.3 hPa | 0 mm | - | - | - |
| 1777856117 | 20° C | 31% | 1015.5 hPa | 0 mm | - | - | - |
| 1777853715 | 23.33° C | 22% | 1014.7 hPa | 0 mm | - | - | - |
| 1777852833 | 24.44° C | 20% | 1014.5 hPa | 0 mm | - | - | - |
| 1777850432 | 26.67° C | 19% | 1014.6 hPa | 0 mm | - | - | - |
| 1777849828 | 24.44° C | 20% | 1014.9 hPa | 0 mm | - | - | - |
| 1777846217 | 25.56° C | 19% | 1016.1 hPa | 0 mm | - | - | - |
| 1777841423 | 26.67° C | 19% | 1017.3 hPa | 0 mm | - | - | - |
| 1777840819 | 26.67° C | 18% | 1017.5 hPa | 0 mm | - | - | - |
| 1777839647 | 26.11° C | 19% | 1018 hPa | 0 mm | - | - | - |
| 1777837215 | 25° C | 20% | 1018.6 hPa | 0 mm | - | - | - |
| 1777836951 | 26.11° C | 20% | 1018.8 hPa | 0 mm | - | - | - |
| 1777836024 | 25.56° C | 20% | 1019 hPa | 0 mm | - | - | - |
| 1777834551 | 25° C | 20% | 1019.4 hPa | 0 mm | - | - | - |
| 1777833020 | 23.89° C | 22% | 1019.8 hPa | 0 mm | - | - | - |
| 1777832417 | 23.33° C | 22% | 1019.9 hPa | 0 mm | - | - | - |
| 1777830923 | 23.33° C | 22% | 1020.2 hPa | 0 mm | - | - | - |
| 1777827625 | 22.22° C | 27% | 1020.7 hPa | 0 mm | - | - | - |
| 1777827322 | 21.67° C | 26% | 1020.7 hPa | 0 mm | - | - | - |
| 1777825528 | 19.44° C | 26% | 1020.9 hPa | 0 mm | - | - | - |
| 1777824018 | 18.89° C | 24% | 1021 hPa | 0 mm | - | - | - |
| 1777823716 | 17.78° C | 24% | 1021 hPa | 0 mm | - | - | - |
* Rain latest hour (hover to see other rain measurements)
** Current wind speed in m/s (hover to see current wind gust speed)